createdAt,value
2019-03-10T00:01:58.402Z,94.00
2019-03-10T00:04:28.734Z,94.30
2019-03-10T00:06:59.212Z,94.00
2019-03-10T00:09:29.529Z,94.20
2019-03-10T00:11:59.974Z,94.10
2019-03-10T00:14:30.307Z,94.40
2019-03-10T00:17:00.666Z,94.40
2019-03-10T00:19:32.092Z,94.10
2019-03-10T00:22:02.629Z,94.20
2019-03-10T00:24:34.077Z,94.20
2019-03-10T00:27:04.482Z,94.60
2019-03-10T00:29:34.834Z,94.20
2019-03-10T00:32:05.806Z,94.20
2019-03-10T00:34:36.156Z,94.20
2019-03-10T00:37:12.393Z,94.10
2019-03-10T00:40:18.726Z,94.10
2019-03-10T00:43:04.753Z,94.20
2019-03-10T00:46:28.645Z,94.20
2019-03-10T00:49:19.825Z,94.30
2019-03-10T00:52:05.088Z,94.40
2019-03-10T00:54:35.569Z,94.50
2019-03-10T00:57:06.105Z,94.60
2019-03-10T00:59:36.477Z,94.40
2019-03-10T01:02:06.819Z,94.60
2019-03-10T01:04:37.189Z,94.60
2019-03-10T01:07:07.572Z,94.70
2019-03-10T01:09:38.025Z,94.70
2019-03-10T01:12:08.770Z,94.70
2019-03-10T01:14:39.142Z,94.70
2019-03-10T01:17:10.285Z,94.80
2019-03-10T01:19:41.394Z,94.90
2019-03-10T01:22:11.806Z,95.00
2019-03-10T01:24:42.587Z,94.90
2019-03-10T01:27:12.934Z,95.30
2019-03-10T01:29:43.389Z,95.00
2019-03-10T01:33:03.885Z,95.30
2019-03-10T01:35:37.784Z,95.00
2019-03-10T01:38:08.143Z,95.00
2019-03-10T01:40:38.532Z,95.00
2019-03-10T01:43:20.314Z,95.20
2019-03-10T01:45:50.698Z,95.30
2019-03-10T01:48:21.047Z,95.40
2019-03-10T01:50:51.421Z,95.60
2019-03-10T01:53:25.551Z,95.20
2019-03-10T01:55:53.748Z,95.40
2019-03-10T01:58:24.181Z,95.40
2019-03-10T02:00:54.660Z,95.50
2019-03-10T02:03:26.094Z,95.50
2019-03-10T02:05:56.486Z,95.50
2019-03-10T02:08:26.861Z,95.60
2019-03-10T02:10:57.316Z,95.50
2019-03-10T02:13:27.644Z,95.60
2019-03-10T02:15:58.013Z,95.60
2019-03-10T02:18:28.353Z,95.80
2019-03-10T02:20:59.236Z,95.70
2019-03-10T02:23:29.595Z,95.80
2019-03-10T02:26:00.055Z,95.70
2019-03-10T02:28:30.390Z,95.80
2019-03-10T02:31:00.773Z,96.00
2019-03-10T02:33:31.118Z,95.80
2019-03-10T02:36:01.462Z,95.70
2019-03-10T02:38:31.830Z,95.80
2019-03-10T02:41:02.243Z,95.70
2019-03-10T02:43:32.583Z,95.90
2019-03-10T02:46:02.991Z,95.90
2019-03-10T02:48:34.399Z,95.90
2019-03-10T02:51:04.810Z,95.80
2019-03-10T02:53:35.146Z,95.80
2019-03-10T02:56:05.536Z,95.90
2019-03-10T02:58:35.881Z,95.90
2019-03-10T03:01:06.326Z,96.00
2019-03-10T03:03:36.675Z,95.90
2019-03-10T03:06:07.040Z,95.90
2019-03-10T03:08:37.382Z,96.00
2019-03-10T03:11:07.746Z,96.00
2019-03-10T03:13:38.126Z,96.00
2019-03-10T03:16:08.459Z,96.00
2019-03-10T03:18:38.822Z,96.00
2019-03-10T03:21:09.169Z,96.00
2019-03-10T03:23:50.818Z,96.10
2019-03-10T03:26:21.142Z,96.00
2019-03-10T03:28:52.687Z,96.00
2019-03-10T03:31:23.059Z,96.10
2019-03-10T03:33:53.472Z,96.00
2019-03-10T03:36:48.963Z,96.10
2019-03-10T03:39:31.229Z,96.10
2019-03-10T03:42:01.914Z,96.10
2019-03-10T03:44:32.266Z,96.10
2019-03-10T03:47:02.728Z,96.50
2019-03-10T03:49:33.103Z,96.10
2019-03-10T03:52:03.538Z,96.20
2019-03-10T03:54:33.929Z,96.20
2019-03-10T03:57:04.422Z,96.20
2019-03-10T03:59:34.787Z,96.40
2019-03-10T04:02:10.855Z,96.50
2019-03-10T04:04:41.181Z,96.50
2019-03-10T04:07:12.490Z,96.50
2019-03-10T04:09:42.828Z,96.80
2019-03-10T04:12:13.309Z,96.50
2019-03-10T04:14:43.654Z,96.50
2019-03-10T04:17:14.053Z,96.70
2019-03-10T04:19:44.386Z,96.70
2019-03-10T04:22:14.770Z,96.80
2019-03-10T04:24:45.278Z,96.90
2019-03-10T04:27:15.622Z,97.00
2019-03-10T04:29:46.020Z,97.00
2019-03-10T04:32:16.383Z,97.10
2019-03-10T04:34:46.749Z,97.00
2019-03-10T04:37:17.097Z,97.00
2019-03-10T04:39:47.474Z,97.10
2019-03-10T04:42:17.813Z,97.10
2019-03-10T04:44:48.203Z,97.20
2019-03-10T04:47:37.584Z,97.20
2019-03-10T04:50:08.262Z,97.20
2019-03-10T04:52:38.599Z,97.10
2019-03-10T04:55:30.154Z,97.20
2019-03-10T04:58:12.038Z,97.10
2019-03-10T05:00:43.441Z,97.10
2019-03-10T05:03:13.792Z,97.10
2019-03-10T05:05:44.173Z,97.40
2019-03-10T05:08:14.521Z,97.20
2019-03-10T05:10:44.864Z,97.20
2019-03-10T05:13:15.237Z,97.20
2019-03-10T05:15:45.573Z,97.20
2019-03-10T05:18:16.042Z,97.20
2019-03-10T05:20:46.402Z,97.20
2019-03-10T05:23:51.210Z,97.10
2019-03-10T05:26:21.598Z,97.20
2019-03-10T05:28:52.090Z,97.40
2019-03-10T05:31:22.449Z,97.10
2019-03-10T05:33:52.838Z,97.10
2019-03-10T05:36:23.192Z,97.10
2019-03-10T05:38:53.567Z,97.00
2019-03-10T05:41:23.952Z,97.10
2019-03-10T05:43:54.352Z,97.10
2019-03-10T05:46:24.718Z,97.20
2019-03-10T05:48:55.124Z,97.20
2019-03-10T05:51:25.470Z,97.20
2019-03-10T05:53:56.804Z,97.30
2019-03-10T05:56:27.149Z,97.40
2019-03-10T05:58:57.537Z,97.30
2019-03-10T06:01:27.912Z,97.40
2019-03-10T06:03:58.337Z,97.40
2019-03-10T06:06:28.697Z,97.40
2019-03-10T06:08:59.089Z,97.40
2019-03-10T06:11:29.448Z,97.40
2019-03-10T06:13:59.814Z,97.40
2019-03-10T06:16:30.176Z,97.30
2019-03-10T06:19:00.513Z,97.40
2019-03-10T06:21:30.915Z,97.40
2019-03-10T06:24:01.273Z,97.40
2019-03-10T06:26:31.705Z,97.40
2019-03-10T06:29:02.050Z,97.50
2019-03-10T06:31:32.420Z,97.40
2019-03-10T06:34:02.772Z,97.50
2019-03-10T06:36:33.138Z,97.50
2019-03-10T06:39:05.030Z,97.60
2019-03-10T06:41:35.574Z,97.50
2019-03-10T06:44:05.917Z,97.60
2019-03-10T06:46:36.337Z,97.40
2019-03-10T06:49:06.673Z,97.40
2019-03-10T06:51:37.161Z,97.80
2019-03-10T06:54:07.524Z,97.20
2019-03-10T06:56:37.917Z,97.50
2019-03-10T06:59:08.277Z,96.70
2019-03-10T07:01:38.675Z,95.20
2019-03-10T07:04:09.077Z,95.10
2019-03-10T07:06:39.409Z,94.00
2019-03-10T07:09:10.843Z,94.30
2019-03-10T07:11:41.195Z,94.10
2019-03-10T07:14:11.578Z,93.60
2019-03-10T07:16:41.931Z,94.10
2019-03-10T07:19:12.955Z,93.20
2019-03-10T07:21:43.313Z,93.20
2019-03-10T07:24:13.683Z,92.90
2019-03-10T07:26:44.189Z,93.50
2019-03-10T07:29:27.116Z,93.50
2019-03-10T07:32:03.820Z,93.40
2019-03-10T07:34:58.946Z,93.00
2019-03-10T07:37:40.528Z,93.20
2019-03-10T07:40:29.922Z,93.40
2019-03-10T07:43:12.525Z,93.80
2019-03-10T07:46:01.841Z,93.90
2019-03-10T07:48:39.174Z,93.80
2019-03-10T07:51:15.893Z,93.50
2019-03-10T07:54:04.114Z,93.90
2019-03-10T07:57:08.186Z,93.50
2019-03-10T07:59:56.821Z,93.60
2019-03-10T08:02:46.213Z,93.80
2019-03-10T08:05:34.398Z,93.60
2019-03-10T08:08:18.362Z,93.60
2019-03-10T08:10:55.117Z,93.10
2019-03-10T08:13:42.701Z,93.40
2019-03-10T08:16:31.985Z,93.80
2019-03-10T08:19:12.126Z,93.30
2019-03-10T08:21:55.846Z,92.80
2019-03-10T08:24:47.541Z,93.10
2019-03-10T08:27:39.743Z,93.20
2019-03-10T08:30:28.295Z,92.80
2019-03-10T08:33:11.964Z,91.90
2019-03-10T08:36:13.943Z,92.60
2019-03-10T08:38:53.162Z,92.70
2019-03-10T08:41:47.303Z,92.60
2019-03-10T08:44:22.838Z,92.50
2019-03-10T08:46:59.605Z,92.20
2019-03-10T08:49:44.718Z,91.60
2019-03-10T08:52:15.829Z,91.80
2019-03-10T08:55:08.126Z,91.70
2019-03-10T08:57:56.159Z,92.20
2019-03-10T09:00:41.689Z,91.90
2019-03-10T09:03:25.629Z,91.60
2019-03-10T09:06:14.449Z,91.80
2019-03-10T09:09:01.149Z,90.70
2019-03-10T09:11:44.393Z,91.10
2019-03-10T09:14:24.194Z,91.20
2019-03-10T09:17:04.081Z,91.00
2019-03-10T09:19:59.394Z,91.50
2019-03-10T09:23:06.877Z,90.60
2019-03-10T09:25:59.666Z,90.60
2019-03-10T09:28:58.125Z,90.70
2019-03-10T09:31:38.239Z,91.30
2019-03-10T09:34:23.874Z,90.60
2019-03-10T09:37:25.226Z,91.10
2019-03-10T09:40:24.746Z,91.30
2019-03-10T09:43:10.654Z,90.30
2019-03-10T09:45:54.054Z,90.60
2019-03-10T09:48:46.136Z,90.10
2019-03-10T09:51:44.701Z,89.40
2019-03-10T09:54:46.242Z,88.70
2019-03-10T09:57:33.194Z,88.10
2019-03-10T10:00:34.778Z,87.00
2019-03-10T10:03:33.134Z,88.10
2019-03-10T10:06:25.452Z,87.90
2019-03-10T10:09:15.058Z,86.60
2019-03-10T10:12:13.363Z,86.80
2019-03-10T10:15:04.070Z,88.10
2019-03-10T10:18:02.477Z,87.50
2019-03-10T10:20:52.462Z,87.20
2019-03-10T10:23:48.054Z,88.00
2019-03-10T10:26:40.152Z,87.50
2019-03-10T10:29:23.988Z,87.80
2019-03-10T10:32:16.287Z,87.30
2019-03-10T10:34:59.867Z,89.20
2019-03-10T10:37:51.935Z,89.50
2019-03-10T10:40:44.244Z,89.00
2019-03-10T10:43:39.018Z,89.10
2019-03-10T10:46:26.993Z,88.60
2019-03-10T10:49:08.845Z,88.40
2019-03-10T10:51:58.162Z,87.20
2019-03-10T10:54:43.238Z,87.80
2019-03-10T10:57:21.528Z,86.90
2019-03-10T11:00:14.021Z,89.00
2019-03-10T11:03:12.483Z,87.00
2019-03-10T11:06:01.854Z,89.70
2019-03-10T11:08:50.005Z,88.00
2019-03-10T11:11:45.392Z,87.20
2019-03-10T11:14:26.786Z,89.20
2019-03-10T11:17:19.094Z,89.10
2019-03-10T11:20:08.417Z,90.00
2019-03-10T11:22:53.153Z,88.30
2019-03-10T11:25:51.702Z,90.30
2019-03-10T11:28:41.050Z,90.00
2019-03-10T11:31:30.382Z,87.80
2019-03-10T11:34:12.344Z,88.30
2019-03-10T11:36:50.850Z,87.30
2019-03-10T11:39:49.581Z,89.50
2019-03-10T11:42:38.653Z,89.60
2019-03-10T11:45:27.761Z,89.60
2019-03-10T11:48:35.505Z,90.20
2019-03-10T11:51:18.323Z,88.70
2019-03-10T11:54:10.493Z,90.00
2019-03-10T11:57:00.237Z,88.60
2019-03-10T11:59:52.477Z,91.10
2019-03-10T12:02:29.442Z,89.20
2019-03-10T12:05:15.869Z,90.90
2019-03-10T12:08:17.193Z,90.70
2019-03-10T12:10:47.677Z,91.20
2019-03-10T12:13:18.005Z,91.50
2019-03-10T12:15:48.342Z,91.80
2019-03-10T12:18:18.885Z,91.70
2019-03-10T12:20:49.297Z,92.30
2019-03-10T12:23:19.697Z,93.10
2019-03-10T12:25:50.078Z,92.80
2019-03-10T12:28:20.747Z,92.90
2019-03-10T12:30:52.205Z,93.00
2019-03-10T12:33:22.691Z,93.40
2019-03-10T12:35:53.078Z,91.50
2019-03-10T12:38:23.514Z,90.90
2019-03-10T12:40:53.942Z,93.10
2019-03-10T12:43:24.437Z,92.50
2019-03-10T12:45:54.797Z,92.30
2019-03-10T12:48:25.178Z,93.60
2019-03-10T12:50:55.566Z,92.80
2019-03-10T12:53:26.097Z,91.50
2019-03-10T12:55:56.463Z,93.00
2019-03-10T12:58:26.894Z,93.30
2019-03-10T13:01:05.670Z,93.70
2019-03-10T13:03:29.655Z,92.80
2019-03-10T13:06:00.056Z,92.70
2019-03-10T13:08:30.509Z,93.10
2019-03-10T13:11:00.922Z,91.80
2019-03-10T13:13:31.285Z,91.40
2019-03-10T13:16:01.622Z,91.20
2019-03-10T13:18:32.318Z,90.80
2019-03-10T13:21:02.654Z,92.00
2019-03-10T13:23:34.086Z,91.60
2019-03-10T13:26:04.840Z,92.20
2019-03-10T13:28:35.210Z,91.70
2019-03-10T13:31:05.585Z,92.10
2019-03-10T13:33:35.957Z,92.70
2019-03-10T13:36:06.838Z,93.20
2019-03-10T13:38:37.234Z,92.40
2019-03-10T13:41:07.589Z,92.30
2019-03-10T13:43:38.146Z,92.80
2019-03-10T13:46:08.486Z,93.20
2019-03-10T13:48:57.934Z,93.10
2019-03-10T13:51:28.292Z,93.50
2019-03-10T13:53:58.673Z,93.00
2019-03-10T13:56:29.050Z,92.90
2019-03-10T13:58:59.399Z,93.30
2019-03-10T14:01:29.763Z,94.30
2019-03-10T14:04:00.399Z,93.80
2019-03-10T14:06:30.861Z,93.90
2019-03-10T14:09:01.197Z,93.60
2019-03-10T14:11:33.221Z,94.10
2019-03-10T14:14:03.565Z,93.40
2019-03-10T14:16:33.946Z,92.90
2019-03-10T14:19:04.325Z,93.00
2019-03-10T14:21:34.827Z,94.10
2019-03-10T14:24:05.317Z,94.30
2019-03-10T14:26:35.807Z,93.60
2019-03-10T14:29:07.238Z,94.00
2019-03-10T14:31:37.749Z,93.60
2019-03-10T14:34:08.102Z,93.20
2019-03-10T14:36:38.490Z,93.10
2019-03-10T14:39:09.529Z,92.30
2019-03-10T14:41:40.354Z,93.40
2019-03-10T14:44:11.039Z,93.10
2019-03-10T14:46:41.386Z,92.00
2019-03-10T14:49:22.516Z,91.70
2019-03-10T14:51:44.913Z,92.70
2019-03-10T14:54:15.250Z,92.70
2019-03-10T14:56:45.727Z,92.60
2019-03-10T14:59:16.049Z,94.00
2019-03-10T15:01:46.526Z,93.30
2019-03-10T15:04:16.861Z,93.90
2019-03-10T15:06:47.319Z,94.20
2019-03-10T15:09:17.682Z,94.40
2019-03-10T15:11:48.065Z,94.10
2019-03-10T15:14:18.410Z,94.00
2019-03-10T15:16:48.786Z,93.50
2019-03-10T15:19:19.142Z,93.80
2019-03-10T15:21:49.482Z,93.60
2019-03-10T15:24:19.848Z,93.80
2019-03-10T15:26:50.178Z,93.80
2019-03-10T15:29:20.657Z,94.20
2019-03-10T15:31:51.151Z,93.70
2019-03-10T15:34:22.019Z,93.90
2019-03-10T15:36:52.334Z,93.70
2019-03-10T15:39:23.057Z,93.90
2019-03-10T15:41:53.441Z,93.80
2019-03-10T15:44:23.820Z,93.80
2019-03-10T15:46:54.169Z,93.80
2019-03-10T15:49:26.273Z,94.20
2019-03-10T15:51:56.626Z,94.70
2019-03-10T15:54:27.073Z,94.70
2019-03-10T15:56:57.835Z,94.90
2019-03-10T15:59:28.209Z,95.10
2019-03-10T16:01:58.554Z,95.10
2019-03-10T16:04:28.947Z,95.20
2019-03-10T16:06:59.258Z,95.30
2019-03-10T16:09:29.631Z,95.50
2019-03-10T16:12:00.018Z,95.80
2019-03-10T16:14:30.412Z,96.10
2019-03-10T16:17:00.751Z,96.10
2019-03-10T16:19:31.129Z,96.20
2019-03-10T16:22:01.453Z,95.80
2019-03-10T16:24:33.414Z,95.90
2019-03-10T16:27:03.741Z,96.10
2019-03-10T16:29:34.211Z,96.50
2019-03-10T16:32:05.071Z,96.40
2019-03-10T16:34:35.450Z,96.80
2019-03-10T16:37:05.773Z,96.60
2019-03-10T16:39:36.154Z,97.00
2019-03-10T16:42:06.502Z,97.00
2019-03-10T16:44:36.982Z,97.10
2019-03-10T16:47:07.328Z,97.20
2019-03-10T16:49:37.682Z,97.10
2019-03-10T16:52:08.037Z,97.10
2019-03-10T16:54:38.525Z,96.40
2019-03-10T16:57:08.881Z,96.50
2019-03-10T16:59:39.206Z,96.70
2019-03-10T17:02:09.574Z,96.50
2019-03-10T17:04:39.923Z,96.80
2019-03-10T17:07:11.386Z,96.70
2019-03-10T17:09:41.722Z,97.00
2019-03-10T17:12:12.101Z,96.80
2019-03-10T17:14:42.458Z,96.90
2019-03-10T17:17:13.362Z,97.20
2019-03-10T17:19:44.122Z,96.90
2019-03-10T17:22:14.898Z,97.20
2019-03-10T17:24:45.282Z,97.30
2019-03-10T17:27:15.666Z,97.40
2019-03-10T17:29:46.047Z,97.60
2019-03-10T17:32:16.706Z,97.60
2019-03-10T17:34:47.071Z,97.60
2019-03-10T17:37:17.458Z,97.60
2019-03-10T17:39:47.832Z,97.90
2019-03-10T17:42:18.247Z,97.70
2019-03-10T17:44:48.594Z,97.60
2019-03-10T17:47:19.328Z,97.80
2019-03-10T17:49:49.797Z,97.50
2019-03-10T17:52:20.153Z,97.90
2019-03-10T17:54:50.482Z,97.70
2019-03-10T17:57:20.969Z,98.00
2019-03-10T17:59:51.349Z,97.70
2019-03-10T18:02:21.680Z,98.40
2019-03-10T18:04:52.465Z,98.00
2019-03-10T18:07:22.805Z,98.10
2019-03-10T18:09:53.171Z,98.30
2019-03-10T18:12:23.527Z,97.90
2019-03-10T18:14:53.857Z,98.10
2019-03-10T18:17:24.209Z,97.90
2019-03-10T18:19:54.561Z,97.50
2019-03-10T18:22:24.893Z,98.40
2019-03-10T18:24:56.724Z,98.40
2019-03-10T18:27:27.053Z,98.80
2019-03-10T18:29:57.426Z,98.80
2019-03-10T18:32:27.861Z,98.70
2019-03-10T18:34:58.226Z,98.60
2019-03-10T18:37:31.751Z,99.10
2019-03-10T18:40:01.013Z,99.50
2019-03-10T18:42:31.513Z,99.20
2019-03-10T18:45:02.296Z,99.40
2019-03-10T18:47:34.265Z,99.40
2019-03-10T18:50:05.133Z,99.50
2019-03-10T18:52:54.517Z,99.70
2019-03-10T18:55:25.519Z,99.40
2019-03-10T18:57:56.025Z,99.20
2019-03-10T19:00:26.523Z,99.60
2019-03-10T19:02:56.854Z,99.50
2019-03-10T19:05:27.251Z,99.50
2019-03-10T19:07:57.637Z,99.70
2019-03-10T19:10:28.107Z,99.90
2019-03-10T19:12:58.457Z,99.60
2019-03-10T19:15:40.822Z,99.40
2019-03-10T19:18:11.213Z,99.70
2019-03-10T19:20:41.617Z,99.90
2019-03-10T19:23:11.967Z,99.60
2019-03-10T19:25:42.342Z,99.30
2019-03-10T19:28:12.752Z,99.40
2019-03-10T19:30:43.170Z,99.50
2019-03-10T19:33:13.560Z,99.40
2019-03-10T19:35:44.011Z,99.40
2019-03-10T19:38:14.418Z,99.40
2019-03-10T19:40:44.778Z,99.30
2019-03-10T19:43:16.225Z,99.20
2019-03-10T19:45:46.576Z,99.30
2019-03-10T19:48:17.014Z,99.40
2019-03-10T19:50:47.394Z,99.40
2019-03-10T19:53:17.720Z,99.50
2019-03-10T19:55:49.165Z,99.60
2019-03-10T19:58:19.602Z,99.60
2019-03-10T20:00:50.001Z,99.80
2019-03-10T20:03:20.447Z,99.90
2019-03-10T20:05:50.769Z,99.90
2019-03-10T20:08:21.146Z,99.90
2019-03-10T20:10:51.841Z,99.90
2019-03-10T20:13:22.361Z,99.90
2019-03-10T20:15:52.891Z,99.90
2019-03-10T20:18:23.329Z,99.90
2019-03-10T20:20:55.505Z,99.90
2019-03-10T20:23:25.864Z,99.90
2019-03-10T20:25:56.246Z,99.90
2019-03-10T20:28:27.671Z,99.90
2019-03-10T20:30:58.113Z,99.90
2019-03-10T20:33:28.437Z,99.90
2019-03-10T20:35:58.826Z,99.90
2019-03-10T20:38:29.274Z,99.90
2019-03-10T20:41:00.970Z,99.90
2019-03-10T20:43:31.390Z,99.90
2019-03-10T20:46:01.769Z,99.90
2019-03-10T20:48:33.893Z,99.90
2019-03-10T20:51:05.396Z,99.90
2019-03-10T20:53:35.951Z,99.90
2019-03-10T20:56:07.808Z,99.90
2019-03-10T20:58:38.481Z,99.90
2019-03-10T21:01:08.966Z,99.90
2019-03-10T21:03:39.395Z,99.90
2019-03-10T21:06:09.788Z,99.90
2019-03-10T21:08:40.146Z,99.90
2019-03-10T21:11:12.399Z,99.90
2019-03-10T21:13:42.642Z,99.90
2019-03-10T21:16:13.047Z,99.90
2019-03-10T21:18:43.411Z,99.90
2019-03-10T21:21:15.584Z,99.90
2019-03-10T21:23:46.010Z,99.90
2019-03-10T21:26:16.366Z,99.90
2019-03-10T21:28:46.693Z,99.90
2019-03-10T21:31:17.310Z,99.90
2019-03-10T21:33:47.635Z,99.90
2019-03-10T21:36:18.009Z,99.90
2019-03-10T21:38:48.347Z,99.90
2019-03-10T21:41:18.698Z,99.90
2019-03-10T21:43:49.762Z,99.90
2019-03-10T21:46:20.300Z,99.90
2019-03-10T21:48:51.717Z,99.90
2019-03-10T21:51:22.593Z,99.90
2019-03-10T21:53:53.008Z,99.90
2019-03-10T21:56:23.393Z,99.90
2019-03-10T21:58:53.726Z,99.90
2019-03-10T22:01:24.088Z,99.90
2019-03-10T22:03:54.417Z,99.90
2019-03-10T22:06:24.769Z,99.90
2019-03-10T22:08:55.162Z,99.90
2019-03-10T22:11:25.461Z,99.90
2019-03-10T22:13:56.165Z,99.90
2019-03-10T22:16:27.558Z,99.90
2019-03-10T22:18:57.933Z,99.90
2019-03-10T22:21:28.367Z,99.90
2019-03-10T22:23:59.671Z,99.90
2019-03-10T22:26:31.390Z,99.90
2019-03-10T22:29:01.847Z,99.90
2019-03-10T22:31:32.410Z,99.90
2019-03-10T22:34:05.309Z,99.90
2019-03-10T22:36:39.407Z,99.90
2019-03-10T22:39:09.825Z,99.90
2019-03-10T22:41:40.190Z,99.90
2019-03-10T22:44:10.564Z,99.90
2019-03-10T22:46:40.949Z,99.90
2019-03-10T22:49:11.369Z,99.90
2019-03-10T22:51:41.782Z,99.90
2019-03-10T22:54:12.153Z,99.90
2019-03-10T22:56:42.540Z,99.90
2019-03-10T22:59:13.125Z,99.90
2019-03-10T23:01:55.129Z,99.90
2019-03-10T23:04:25.575Z,99.90
2019-03-10T23:06:55.868Z,99.90
2019-03-10T23:09:26.330Z,99.90
2019-03-10T23:11:56.673Z,99.90
2019-03-10T23:14:27.106Z,99.90
2019-03-10T23:17:16.520Z,99.90
2019-03-10T23:19:46.893Z,99.90
2019-03-10T23:22:17.353Z,99.90
2019-03-10T23:24:47.717Z,99.90
2019-03-10T23:27:18.085Z,99.90
2019-03-10T23:29:48.431Z,99.90
2019-03-10T23:32:19.206Z,99.90
2019-03-10T23:34:49.538Z,99.90
2019-03-10T23:37:19.914Z,99.90
2019-03-10T23:39:50.274Z,99.90
2019-03-10T23:42:20.665Z,99.90
2019-03-10T23:44:51.018Z,99.90
2019-03-10T23:47:21.372Z,99.90
2019-03-10T23:49:52.078Z,99.90
2019-03-10T23:52:22.421Z,99.90
2019-03-10T23:54:52.815Z,99.90
2019-03-10T23:57:23.155Z,99.90
2019-03-10T23:59:53.538Z,99.90
